createdAt,value
2018-04-18T00:00:55.698Z,3.90
2018-04-18T00:03:06.804Z,3.80
2018-04-18T00:05:17.955Z,3.83
2018-04-18T00:07:29.042Z,4.33
2018-04-18T00:09:40.197Z,5.77
2018-04-18T00:11:51.285Z,4.73
2018-04-18T00:14:02.359Z,4.87
2018-04-18T00:16:13.528Z,4.00
2018-04-18T00:18:24.634Z,4.10
2018-04-18T00:20:35.781Z,7.17
2018-04-18T00:22:46.870Z,4.63
2018-04-18T00:24:57.973Z,5.73
2018-04-18T00:27:09.046Z,6.13
2018-04-18T00:29:20.114Z,4.27
2018-04-18T00:31:31.250Z,4.00
2018-04-18T00:33:42.298Z,4.93
2018-04-18T00:35:53.538Z,4.17
2018-04-18T00:38:04.626Z,4.80
2018-04-18T00:40:15.755Z,3.50
2018-04-18T00:42:26.991Z,4.67
2018-04-18T00:44:38.053Z,4.93
2018-04-18T00:46:49.134Z,4.23
2018-04-18T00:49:00.226Z,6.67
2018-04-18T00:51:11.382Z,4.50
2018-04-18T00:53:22.426Z,5.13
2018-04-18T00:55:33.567Z,3.93
2018-04-18T00:57:44.674Z,4.63
2018-04-18T00:59:55.886Z,5.53
2018-04-18T01:02:06.992Z,7.50
2018-04-18T01:04:18.081Z,7.83
2018-04-18T01:06:29.149Z,6.33
2018-04-18T01:08:40.273Z,5.77
2018-04-18T01:10:51.357Z,5.03
2018-04-18T01:13:02.454Z,5.53
2018-04-18T01:15:13.746Z,4.70
2018-04-18T01:17:24.847Z,6.30
2018-04-18T01:19:35.998Z,5.53
2018-04-18T01:21:47.086Z,5.73
2018-04-18T01:23:58.205Z,5.97
2018-04-18T01:26:09.273Z,5.70
2018-04-18T01:28:20.373Z,5.90
2018-04-18T01:30:31.450Z,5.60
2018-04-18T01:32:42.521Z,5.97
2018-04-18T01:34:53.659Z,6.00
2018-04-18T01:37:04.710Z,6.20
2018-04-18T01:39:15.945Z,6.27
2018-04-18T01:41:27.033Z,6.07
2018-04-18T01:43:38.090Z,6.97
2018-04-18T01:45:49.165Z,6.80
2018-04-18T01:48:00.302Z,7.67
2018-04-18T01:50:11.478Z,7.47
2018-04-18T01:52:22.569Z,8.53
2018-04-18T01:54:33.754Z,9.40
2018-04-18T01:56:44.840Z,8.10
2018-04-18T01:58:55.974Z,10.20
2018-04-18T02:01:07.101Z,8.20
2018-04-18T02:03:18.186Z,8.43
2018-04-18T02:05:29.333Z,8.37
2018-04-18T02:07:40.432Z,8.27
2018-04-18T02:09:51.595Z,9.53
2018-04-18T02:12:02.712Z,10.70
2018-04-18T02:14:13.846Z,9.30
2018-04-18T02:16:24.933Z,8.80
2018-04-18T02:18:36.193Z,8.37
2018-04-18T02:20:47.237Z,9.03
2018-04-18T02:22:58.314Z,7.30
2018-04-18T02:25:09.411Z,9.57
2018-04-18T02:27:20.494Z,9.40
2018-04-18T02:29:31.654Z,7.90
2018-04-18T02:31:42.778Z,8.50
2018-04-18T02:33:53.958Z,10.30
2018-04-18T02:36:05.002Z,8.87
2018-04-18T02:38:16.218Z,8.50
2018-04-18T02:40:27.296Z,7.43
2018-04-18T02:42:38.415Z,8.80
2018-04-18T02:44:49.518Z,8.60
2018-04-18T02:47:00.591Z,8.10
2018-04-18T02:49:11.925Z,8.77
2018-04-18T02:51:22.986Z,8.53
2018-04-18T02:53:34.158Z,8.67
2018-04-18T02:55:45.193Z,9.20
2018-04-18T02:57:56.265Z,10.47
2018-04-18T03:00:07.342Z,9.67
2018-04-18T03:02:18.379Z,10.70
2018-04-18T03:04:29.532Z,10.60
2018-04-18T03:06:40.616Z,8.27
2018-04-18T03:08:51.823Z,8.93
2018-04-18T03:11:02.884Z,9.70
2018-04-18T03:13:14.057Z,9.53
2018-04-18T03:15:25.162Z,9.63
2018-04-18T03:17:36.232Z,10.07
2018-04-18T03:19:47.305Z,9.87
2018-04-18T03:21:58.414Z,9.87
2018-04-18T03:24:09.492Z,9.80
2018-04-18T03:26:20.650Z,10.43
2018-04-18T03:28:31.745Z,10.07
2018-04-18T03:30:42.835Z,10.07
2018-04-18T03:32:53.918Z,9.83
2018-04-18T03:35:05.015Z,10.30
2018-04-18T03:37:16.121Z,10.23
2018-04-18T03:39:27.218Z,10.00
2018-04-18T03:41:38.302Z,10.00
2018-04-18T03:43:49.352Z,10.27
2018-04-18T03:46:00.539Z,10.70
2018-04-18T03:48:11.578Z,11.23
2018-04-18T03:50:22.682Z,10.20
2018-04-18T03:52:33.770Z,11.57
2018-04-18T03:54:45.689Z,12.47
2018-04-18T03:56:56.765Z,11.57
2018-04-18T03:59:07.822Z,11.83
2018-04-18T04:01:18.885Z,10.77
2018-04-18T04:03:30.038Z,10.67
2018-04-18T04:05:41.127Z,11.97
2018-04-18T04:07:52.273Z,12.17
2018-04-18T04:10:03.352Z,13.83
2018-04-18T04:12:14.466Z,14.77
2018-04-18T04:14:25.526Z,13.50
2018-04-18T04:16:48.945Z,12.77
2018-04-18T04:19:12.154Z,13.53
2018-04-18T04:21:35.341Z,11.93
2018-04-18T04:23:58.602Z,12.30
2018-04-18T04:26:09.662Z,12.57
2018-04-18T04:28:20.738Z,13.23
2018-04-18T04:30:31.825Z,11.43
2018-04-18T04:32:42.945Z,12.23
2018-04-18T04:34:54.120Z,13.53
2018-04-18T04:37:05.251Z,12.17
2018-04-18T04:39:16.381Z,13.83
2018-04-18T04:41:27.471Z,14.13
2018-04-18T04:43:38.607Z,12.47
2018-04-18T04:45:49.686Z,13.27
2018-04-18T04:48:00.757Z,18.60
2018-04-18T04:50:11.866Z,15.07
2018-04-18T04:52:22.991Z,15.57
2018-04-18T04:54:34.125Z,13.93
2018-04-18T04:56:45.204Z,15.37
2018-04-18T04:58:56.274Z,16.17
2018-04-18T05:01:07.375Z,16.63
2018-04-18T05:03:18.417Z,13.57
2018-04-18T05:05:29.586Z,15.47
2018-04-18T05:07:40.672Z,13.10
2018-04-18T05:09:51.819Z,12.17
2018-04-18T05:12:02.903Z,12.33
2018-04-18T05:14:14.031Z,10.67
2018-04-18T05:16:25.098Z,10.90
2018-04-18T05:18:36.188Z,12.27
2018-04-18T05:20:47.306Z,14.03
2018-04-18T05:22:58.411Z,19.90
2018-04-18T05:25:09.537Z,12.60
2018-04-18T05:27:20.630Z,15.40
2018-04-18T05:29:31.714Z,11.60
2018-04-18T05:31:43.009Z,12.23
2018-04-18T05:33:54.327Z,15.27
2018-04-18T05:36:05.429Z,11.97
2018-04-18T05:38:16.616Z,10.90
2018-04-18T05:40:27.689Z,12.23
2018-04-18T05:42:38.821Z,11.50
2018-04-18T05:44:49.955Z,13.77
2018-04-18T05:47:01.012Z,13.83
2018-04-18T05:49:12.213Z,10.87
2018-04-18T05:51:23.321Z,9.83
2018-04-18T05:53:34.496Z,8.80
2018-04-18T05:55:45.769Z,12.10
2018-04-18T05:57:56.927Z,10.43
2018-04-18T06:00:08.002Z,9.17
2018-04-18T06:02:19.114Z,13.50
2018-04-18T06:04:30.250Z,11.40
2018-04-18T06:06:41.322Z,12.47
2018-04-18T06:08:52.475Z,12.37
2018-04-18T06:11:03.546Z,10.97
2018-04-18T06:13:14.826Z,11.10
2018-04-18T06:15:25.873Z,10.73
2018-04-18T06:17:37.138Z,10.43
2018-04-18T06:19:48.244Z,11.50
2018-04-18T06:21:59.382Z,11.03
2018-04-18T06:24:10.454Z,15.80
2018-04-18T06:26:21.538Z,18.73
2018-04-18T06:28:32.683Z,30.07
2018-04-18T06:30:43.818Z,27.00
2018-04-18T06:32:54.977Z,24.40
2018-04-18T06:35:06.327Z,23.30
2018-04-18T06:37:17.434Z,17.70
2018-04-18T06:39:28.590Z,17.73
2018-04-18T06:41:39.657Z,20.00
2018-04-18T06:43:50.887Z,17.00
2018-04-18T06:46:01.974Z,18.47
2018-04-18T06:48:13.098Z,14.03
2018-04-18T06:50:24.239Z,13.60
2018-04-18T06:52:35.386Z,15.63
2018-04-18T06:54:46.550Z,16.77
2018-04-18T06:56:57.614Z,19.20
2018-04-18T06:59:08.822Z,17.17
2018-04-18T07:01:19.940Z,15.97
2018-04-18T07:03:31.006Z,13.00
2018-04-18T07:05:42.135Z,16.53
2018-04-18T07:07:53.226Z,11.33
2018-04-18T07:10:04.342Z,13.60
2018-04-18T07:12:15.472Z,13.20
2018-04-18T07:14:26.615Z,16.20
2018-04-18T07:16:37.698Z,12.57
2018-04-18T07:18:48.778Z,14.27
2018-04-18T07:20:59.886Z,13.70
2018-04-18T07:23:10.959Z,11.30
2018-04-18T07:25:22.026Z,13.00
2018-04-18T07:27:33.159Z,13.73
2018-04-18T07:29:44.249Z,12.30
2018-04-18T07:31:55.325Z,12.53
2018-04-18T07:34:06.515Z,12.10
2018-04-18T07:36:17.596Z,14.70
2018-04-18T07:38:28.718Z,15.13
2018-04-18T07:40:39.802Z,13.90
2018-04-18T07:42:50.946Z,14.80
2018-04-18T07:45:02.022Z,15.67
2018-04-18T07:47:13.132Z,15.20
2018-04-18T07:49:24.276Z,15.93
2018-04-18T07:51:35.338Z,14.57
2018-04-18T07:53:46.440Z,18.67
2018-04-18T07:55:57.542Z,16.73
2018-04-18T07:58:08.710Z,16.27
2018-04-18T08:00:19.821Z,18.33
2018-04-18T08:02:30.932Z,18.83
2018-04-18T08:04:42.038Z,15.80
2018-04-18T08:06:53.302Z,17.50
2018-04-18T08:09:05.223Z,23.03
2018-04-18T08:11:16.349Z,21.27
2018-04-18T08:13:27.417Z,24.60
2018-04-18T08:15:38.572Z,24.67
2018-04-18T08:17:49.675Z,19.17
2018-04-18T08:20:00.818Z,17.50
2018-04-18T08:22:11.911Z,20.03
2018-04-18T08:24:23.069Z,18.57
2018-04-18T08:26:34.205Z,17.67
2018-04-18T08:28:45.287Z,17.80
2018-04-18T08:30:56.369Z,18.87
2018-04-18T08:33:07.431Z,18.67
2018-04-18T08:35:18.619Z,17.13
2018-04-18T08:37:29.802Z,18.93
2018-04-18T08:39:40.938Z,16.60
2018-04-18T08:41:52.049Z,16.57
2018-04-18T08:44:03.206Z,14.17
2018-04-18T08:46:14.322Z,18.43
2018-04-18T08:48:25.440Z,16.90
2018-04-18T08:50:36.466Z,13.47
2018-04-18T08:52:47.594Z,13.67
2018-04-18T08:54:58.821Z,13.37
2018-04-18T08:57:09.933Z,17.00
2018-04-18T08:59:21.161Z,12.67
2018-04-18T09:01:32.300Z,13.47
2018-04-18T09:03:43.594Z,16.07
2018-04-18T09:05:54.703Z,15.27
2018-04-18T09:08:05.836Z,17.00
2018-04-18T09:10:16.998Z,14.33
2018-04-18T09:12:28.110Z,10.80
2018-04-18T09:14:39.229Z,13.83
2018-04-18T09:16:50.294Z,10.53
2018-04-18T09:19:01.496Z,10.33
2018-04-18T09:21:12.713Z,8.90
2018-04-18T09:23:23.839Z,10.13
2018-04-18T09:25:35.030Z,10.43
2018-04-18T09:27:46.175Z,13.37
2018-04-18T09:29:57.405Z,9.70
2018-04-18T09:32:08.471Z,12.43
2018-04-18T09:34:19.572Z,11.07
2018-04-18T09:36:30.666Z,9.93
2018-04-18T09:38:41.750Z,11.93
2018-04-18T09:40:52.976Z,11.33
2018-04-18T09:43:04.069Z,10.20
2018-04-18T09:45:15.343Z,9.37
2018-04-18T09:47:26.406Z,8.33
2018-04-18T09:49:37.554Z,11.90
2018-04-18T09:51:48.638Z,11.00
2018-04-18T09:53:59.753Z,11.77
2018-04-18T09:56:10.817Z,9.67
2018-04-18T09:58:21.943Z,9.67
2018-04-18T10:00:39.089Z,9.40
2018-04-18T10:02:56.155Z,7.03
2018-04-18T10:05:07.395Z,7.30
2018-04-18T10:07:18.477Z,7.93
2018-04-18T10:09:29.753Z,7.57
2018-04-18T10:11:40.897Z,8.97
2018-04-18T10:13:52.018Z,6.47
2018-04-18T10:16:03.125Z,6.10
2018-04-18T10:18:14.223Z,8.07
2018-04-18T10:20:25.293Z,6.80
2018-04-18T10:22:36.414Z,8.00
2018-04-18T10:24:47.653Z,7.40
2018-04-18T10:26:58.791Z,7.80
2018-04-18T10:29:09.949Z,6.57
2018-04-18T10:31:21.160Z,7.90
2018-04-18T10:33:32.266Z,7.37
2018-04-18T10:35:43.487Z,8.17
2018-04-18T10:37:54.603Z,6.33
2018-04-18T10:40:05.710Z,5.07
2018-04-18T10:42:16.777Z,7.53
2018-04-18T10:44:27.892Z,8.10
2018-04-18T10:46:38.976Z,7.13
2018-04-18T10:48:50.157Z,6.60
2018-04-18T10:51:01.387Z,6.83
2018-04-18T10:53:12.453Z,7.40
2018-04-18T10:55:23.615Z,6.67
2018-04-18T10:57:34.710Z,7.10
2018-04-18T10:59:45.827Z,5.23
2018-04-18T11:01:56.891Z,5.00
2018-04-18T11:04:08.081Z,4.60
2018-04-18T11:06:19.245Z,5.20
2018-04-18T11:08:30.379Z,5.67
2018-04-18T11:10:41.674Z,5.10
2018-04-18T11:12:52.747Z,5.63
2018-04-18T11:15:03.905Z,6.03
2018-04-18T11:17:14.999Z,5.03
2018-04-18T11:19:26.136Z,6.87
2018-04-18T11:21:37.221Z,7.30
2018-04-18T11:23:48.341Z,5.17
2018-04-18T11:25:59.490Z,5.37
2018-04-18T11:28:10.558Z,5.33
2018-04-18T11:30:21.706Z,6.03
2018-04-18T11:32:32.799Z,4.90
2018-04-18T11:34:44.310Z,5.13
2018-04-18T11:36:55.458Z,5.53
2018-04-18T11:39:06.558Z,7.07
2018-04-18T11:41:17.856Z,4.57
2018-04-18T11:43:28.957Z,7.23
2018-04-18T11:45:40.014Z,5.60
2018-04-18T11:47:51.178Z,5.90
2018-04-18T11:50:02.274Z,4.40
2018-04-18T11:52:13.435Z,3.43
2018-04-18T11:54:24.549Z,4.40
2018-04-18T11:56:35.681Z,3.83
2018-04-18T11:58:46.830Z,4.20
2018-04-18T12:00:58.042Z,5.07
2018-04-18T12:03:09.142Z,5.83
2018-04-18T12:05:20.239Z,4.17
2018-04-18T12:07:31.330Z,5.87
2018-04-18T12:09:42.424Z,3.97
2018-04-18T12:11:53.617Z,5.93
2018-04-18T12:14:04.783Z,5.20
2018-04-18T12:16:16.022Z,4.67
2018-04-18T12:18:27.261Z,7.73
2018-04-18T12:20:38.362Z,4.93
2018-04-18T12:22:49.712Z,5.43
2018-04-18T12:25:00.782Z,5.03
2018-04-18T12:27:12.055Z,5.03
2018-04-18T12:29:23.157Z,6.07
2018-04-18T12:31:34.226Z,5.47
2018-04-18T12:33:45.370Z,6.77
2018-04-18T12:35:56.438Z,4.53
2018-04-18T12:38:07.571Z,4.97
2018-04-18T12:40:18.651Z,5.23
2018-04-18T12:42:29.757Z,5.43
2018-04-18T12:44:40.853Z,5.30
2018-04-18T12:46:52.082Z,4.97
2018-04-18T12:49:03.217Z,4.90
2018-04-18T12:51:14.273Z,6.07
2018-04-18T12:53:25.372Z,4.07
2018-04-18T12:55:36.493Z,5.03
2018-04-18T12:57:47.628Z,6.60
2018-04-18T12:59:58.737Z,4.23
2018-04-18T13:02:09.927Z,6.43
2018-04-18T13:04:21.006Z,5.60
2018-04-18T13:06:32.127Z,4.93
2018-04-18T13:08:43.222Z,5.43
2018-04-18T13:10:54.359Z,4.63
2018-04-18T13:13:05.429Z,5.37
2018-04-18T13:15:16.517Z,5.97
2018-04-18T13:17:27.705Z,5.83
2018-04-18T13:19:38.867Z,6.87
2018-04-18T13:21:50.090Z,7.13
2018-04-18T13:24:01.189Z,5.93
2018-04-18T13:26:12.292Z,6.13
2018-04-18T13:28:23.385Z,7.67
2018-04-18T13:30:34.474Z,6.97
2018-04-18T13:32:45.553Z,6.70
2018-04-18T13:34:56.638Z,7.90
2018-04-18T13:37:07.833Z,6.73
2018-04-18T13:39:19.873Z,7.03
2018-04-18T13:41:30.951Z,7.97
2018-04-18T13:43:42.118Z,6.50
2018-04-18T13:45:53.218Z,7.80
2018-04-18T13:48:04.322Z,6.37
2018-04-18T13:50:15.434Z,4.97
2018-04-18T13:52:26.503Z,7.63
2018-04-18T13:54:37.590Z,8.53
2018-04-18T13:56:48.661Z,11.57
2018-04-18T13:58:59.802Z,8.70
2018-04-18T14:01:10.941Z,9.30
2018-04-18T14:03:22.175Z,6.80
2018-04-18T14:05:33.259Z,6.50
2018-04-18T14:07:44.374Z,8.20
2018-04-18T14:09:55.464Z,6.70
2018-04-18T14:12:06.674Z,3.97
2018-04-18T14:14:17.872Z,4.73
2018-04-18T14:16:29.014Z,5.00
2018-04-18T14:18:40.086Z,4.43
2018-04-18T14:20:51.243Z,4.67
2018-04-18T14:23:02.439Z,4.50
2018-04-18T14:25:13.517Z,3.67
2018-04-18T14:27:24.666Z,4.73
2018-04-18T14:29:35.734Z,5.17
2018-04-18T14:31:46.871Z,4.13
2018-04-18T14:33:57.985Z,6.03
2018-04-18T14:36:09.075Z,3.90
2018-04-18T14:38:20.229Z,5.30
2018-04-18T14:40:31.323Z,6.07
2018-04-18T14:42:42.582Z,4.43
2018-04-18T14:44:53.683Z,4.07
2018-04-18T14:47:04.844Z,4.40
2018-04-18T14:49:16.115Z,5.37
2018-04-18T14:51:27.186Z,5.83
2018-04-18T14:53:38.395Z,5.33
2018-04-18T14:55:49.452Z,4.13
2018-04-18T14:58:00.581Z,6.83
2018-04-18T15:00:11.659Z,3.63
2018-04-18T15:02:22.730Z,6.70
2018-04-18T15:04:33.859Z,3.73
2018-04-18T15:06:44.983Z,5.03
2018-04-18T15:08:56.105Z,4.63
2018-04-18T15:11:07.278Z,3.43
2018-04-18T15:13:18.365Z,3.77
2018-04-18T15:15:29.462Z,4.07
2018-04-18T15:17:40.540Z,4.97
2018-04-18T15:19:51.617Z,4.20
2018-04-18T15:22:02.685Z,4.50
2018-04-18T15:24:13.812Z,4.47
2018-04-18T15:26:24.960Z,4.17
2018-04-18T15:28:36.086Z,5.60
2018-04-18T15:30:47.154Z,4.67
2018-04-18T15:32:58.254Z,4.43
2018-04-18T15:35:09.345Z,4.37
2018-04-18T15:37:20.499Z,4.17
2018-04-18T15:39:31.581Z,3.80
2018-04-18T15:41:42.692Z,4.90
2018-04-18T15:43:53.786Z,5.17
2018-04-18T15:46:05.059Z,3.27
2018-04-18T15:48:16.242Z,6.67
2018-04-18T15:50:27.357Z,3.73
2018-04-18T15:52:38.488Z,4.20
2018-04-18T15:54:49.587Z,4.87
2018-04-18T15:57:00.665Z,4.37
2018-04-18T15:59:11.771Z,4.50
2018-04-18T16:01:22.878Z,4.67
2018-04-18T16:03:34.091Z,3.57
2018-04-18T16:05:45.151Z,5.47
2018-04-18T16:07:56.242Z,4.43
2018-04-18T16:10:07.358Z,6.00
2018-04-18T16:12:18.473Z,5.77
2018-04-18T16:14:29.563Z,4.73
2018-04-18T16:16:40.682Z,5.30
2018-04-18T16:18:51.786Z,4.10
2018-04-18T16:21:02.994Z,5.77
2018-04-18T16:23:14.161Z,4.47
2018-04-18T16:25:25.341Z,8.13
2018-04-18T16:27:36.542Z,5.17
2018-04-18T16:29:47.624Z,4.70
2018-04-18T16:31:58.794Z,4.30
2018-04-18T16:34:09.851Z,5.20
2018-04-18T16:36:20.925Z,5.40
2018-04-18T16:38:32.019Z,4.93
2018-04-18T16:40:43.205Z,5.53
2018-04-18T16:42:54.356Z,7.50
2018-04-18T16:45:05.429Z,5.90
2018-04-18T16:47:16.638Z,4.73
2018-04-18T16:49:27.695Z,5.10
2018-04-18T16:51:38.813Z,5.23
2018-04-18T16:53:49.915Z,4.77
2018-04-18T16:56:01.054Z,5.97
2018-04-18T16:58:12.142Z,4.07
2018-04-18T17:00:23.212Z,6.97
2018-04-18T17:02:34.466Z,4.13
2018-04-18T17:04:45.553Z,4.30
2018-04-18T17:06:56.821Z,3.93
2018-04-18T17:09:07.967Z,4.77
2018-04-18T17:11:19.046Z,5.17
2018-04-18T17:13:30.150Z,4.57
2018-04-18T17:15:41.226Z,7.53
2018-04-18T17:17:52.358Z,4.40
2018-04-18T17:20:03.488Z,6.43
2018-04-18T17:22:14.643Z,6.17
2018-04-18T17:24:25.821Z,5.17
2018-04-18T17:26:37.010Z,4.47
2018-04-18T17:28:48.206Z,3.80
2018-04-18T17:30:59.270Z,5.17
2018-04-18T17:33:10.381Z,4.83
2018-04-18T17:35:21.458Z,6.27
2018-04-18T17:37:32.579Z,3.40
2018-04-18T17:39:43.657Z,2.40
2018-04-18T17:41:54.860Z,1.80
2018-04-18T17:44:05.961Z,5.13
2018-04-18T17:46:17.130Z,2.87
2018-04-18T17:48:28.242Z,2.90
2018-04-18T17:50:39.370Z,3.17
2018-04-18T17:52:50.473Z,3.07
2018-04-18T17:55:01.614Z,3.40
2018-04-18T17:57:12.681Z,4.17
2018-04-18T17:59:23.741Z,3.27
2018-04-18T18:01:34.919Z,4.20
2018-04-18T18:03:46.050Z,4.60
2018-04-18T18:05:57.412Z,3.87
2018-04-18T18:08:08.525Z,3.13
2018-04-18T18:10:19.678Z,2.37
2018-04-18T18:12:30.788Z,3.17
2018-04-18T18:14:41.907Z,3.30
2018-04-18T18:16:52.995Z,3.60
2018-04-18T18:19:04.042Z,3.53
2018-04-18T18:21:15.191Z,4.67
2018-04-18T18:23:26.426Z,3.77
2018-04-18T18:25:37.531Z,5.03
2018-04-18T18:27:48.630Z,8.60
2018-04-18T18:29:59.699Z,11.77
2018-04-18T18:32:10.830Z,6.53
2018-04-18T18:34:21.958Z,4.83
2018-04-18T18:36:33.112Z,5.70
2018-04-18T18:38:44.226Z,5.13
2018-04-18T18:40:55.496Z,4.43
2018-04-18T18:43:06.716Z,2.60
2018-04-18T18:45:17.774Z,7.23
2018-04-18T18:47:28.921Z,3.93
2018-04-18T18:49:40.022Z,3.90
2018-04-18T18:51:51.194Z,4.00
2018-04-18T18:54:02.325Z,3.13
2018-04-18T18:56:13.407Z,3.60
2018-04-18T18:58:24.582Z,3.00
2018-04-18T19:00:35.636Z,2.60
2018-04-18T19:02:46.754Z,4.83
2018-04-18T19:04:57.910Z,3.27
2018-04-18T19:07:09.058Z,2.97
2018-04-18T19:09:20.212Z,4.37
2018-04-18T19:11:31.329Z,3.13
2018-04-18T19:13:42.417Z,3.73
2018-04-18T19:15:53.507Z,3.23
2018-04-18T19:18:04.627Z,3.97
2018-04-18T19:20:15.770Z,5.50
2018-04-18T19:22:26.907Z,2.60
2018-04-18T19:24:38.067Z,2.80
2018-04-18T19:26:49.328Z,3.03
2018-04-18T19:29:00.437Z,3.40
2018-04-18T19:31:11.651Z,2.93
2018-04-18T19:33:22.729Z,3.53
2018-04-18T19:35:33.890Z,3.20
2018-04-18T19:37:44.982Z,3.67
2018-04-18T19:39:56.040Z,2.97
2018-04-18T19:42:07.180Z,4.20
2018-04-18T19:44:18.527Z,3.90
2018-04-18T19:46:29.708Z,3.43
2018-04-18T19:48:40.839Z,4.30
2018-04-18T19:50:52.002Z,4.20
2018-04-18T19:53:03.290Z,4.70
2018-04-18T19:55:14.426Z,5.73
2018-04-18T19:57:25.622Z,4.87
2018-04-18T19:59:36.706Z,3.90
2018-04-18T20:01:47.840Z,3.93
2018-04-18T20:03:58.966Z,5.03
2018-04-18T20:06:10.049Z,3.23
2018-04-18T20:08:21.211Z,3.50
2018-04-18T20:10:32.289Z,4.93
2018-04-18T20:12:44.396Z,4.33
2018-04-18T20:14:55.556Z,3.97
2018-04-18T20:17:06.677Z,4.47
2018-04-18T20:19:17.873Z,4.60
2018-04-18T20:21:32.094Z,4.70
2018-04-18T20:23:43.270Z,4.30
2018-04-18T20:25:54.407Z,5.57
2018-04-18T20:28:05.566Z,6.50
2018-04-18T20:30:16.646Z,4.57
2018-04-18T20:32:27.774Z,3.83
2018-04-18T20:34:38.987Z,4.30
2018-04-18T20:36:50.230Z,5.33
2018-04-18T20:39:01.593Z,4.73
2018-04-18T20:41:12.698Z,8.13
2018-04-18T20:43:23.985Z,5.67
2018-04-18T20:45:35.085Z,6.20
2018-04-18T20:47:46.255Z,7.97
2018-04-18T20:49:57.374Z,5.90
2018-04-18T20:52:08.451Z,6.60
2018-04-18T20:54:19.569Z,5.07
2018-04-18T20:56:30.763Z,4.37
2018-04-18T20:58:42.357Z,5.77
2018-04-18T21:00:53.601Z,4.87
2018-04-18T21:03:04.699Z,5.13
2018-04-18T21:05:15.922Z,3.30
2018-04-18T21:07:27.126Z,5.27
2018-04-18T21:09:38.329Z,5.50
2018-04-18T21:11:49.449Z,5.70
2018-04-18T21:14:00.518Z,6.67
2018-04-18T21:16:11.605Z,5.90
2018-04-18T21:18:22.714Z,7.27
2018-04-18T21:20:33.796Z,5.53
2018-04-18T21:22:44.887Z,5.27
2018-04-18T21:24:56.021Z,4.93
2018-04-18T21:27:07.205Z,5.33
2018-04-18T21:29:18.311Z,6.67
2018-04-18T21:31:29.508Z,5.87
2018-04-18T21:33:40.570Z,6.27
2018-04-18T21:35:51.632Z,5.70
2018-04-18T21:38:02.726Z,6.07
2018-04-18T21:40:13.794Z,5.87
2018-04-18T21:42:24.851Z,13.27
2018-04-18T21:44:36.011Z,7.40
2018-04-18T21:46:47.118Z,5.67
2018-04-18T21:48:58.174Z,6.73
2018-04-18T21:51:09.285Z,9.50
2018-04-18T21:53:20.398Z,6.87
2018-04-18T21:55:31.490Z,6.23
2018-04-18T21:57:42.584Z,6.17
2018-04-18T21:59:53.770Z,6.43
2018-04-18T22:02:04.836Z,8.00
2018-04-18T22:04:16.021Z,6.00
2018-04-18T22:06:27.122Z,6.10
2018-04-18T22:08:38.274Z,5.20
2018-04-18T22:10:49.377Z,6.27
2018-04-18T22:13:00.429Z,5.17
2018-04-18T22:15:11.512Z,6.43
2018-04-18T22:17:22.583Z,7.43
2018-04-18T22:19:33.702Z,7.17
2018-04-18T22:21:44.775Z,8.63
2018-04-18T22:23:55.867Z,8.13
2018-04-18T22:26:06.969Z,7.43
2018-04-18T22:28:18.125Z,10.70
2018-04-18T22:30:29.181Z,8.17
2018-04-18T22:32:40.289Z,7.50
2018-04-18T22:34:51.401Z,7.40
2018-04-18T22:37:02.530Z,7.20
2018-04-18T22:39:13.645Z,9.77
2018-04-18T22:41:24.793Z,8.67
2018-04-18T22:43:35.996Z,7.67
2018-04-18T22:45:47.042Z,7.70
2018-04-18T22:47:58.129Z,5.63
2018-04-18T22:50:09.238Z,8.20
2018-04-18T22:52:20.318Z,8.07
2018-04-18T22:54:31.425Z,6.93
2018-04-18T22:56:42.545Z,8.23
2018-04-18T22:58:53.681Z,8.33
2018-04-18T23:01:04.773Z,6.97
2018-04-18T23:03:15.857Z,8.87
2018-04-18T23:05:26.931Z,7.57
2018-04-18T23:07:38.017Z,9.00
2018-04-18T23:09:49.093Z,10.47
2018-04-18T23:12:00.213Z,11.50
2018-04-18T23:14:11.340Z,7.57
2018-04-18T23:16:22.475Z,9.37
2018-04-18T23:18:33.557Z,8.13
2018-04-18T23:20:44.704Z,8.23
2018-04-18T23:22:55.790Z,10.83
2018-04-18T23:25:06.859Z,9.93
2018-04-18T23:27:17.902Z,10.03
2018-04-18T23:29:29.027Z,12.60
2018-04-18T23:31:40.221Z,12.00
2018-04-18T23:33:51.297Z,13.33
2018-04-18T23:36:02.453Z,8.27
2018-04-18T23:38:13.510Z,9.50
2018-04-18T23:40:24.615Z,11.20
2018-04-18T23:42:35.702Z,7.93
2018-04-18T23:44:46.746Z,9.40
2018-04-18T23:46:57.846Z,8.07
2018-04-18T23:49:08.881Z,8.77
2018-04-18T23:51:20.109Z,7.90
2018-04-18T23:53:31.233Z,10.40
2018-04-18T23:55:42.329Z,9.53
2018-04-18T23:57:53.377Z,10.10
